createdAt,value
2019-03-06T00:00:43.976Z,1002.20
2019-03-06T00:01:43.969Z,1002.18
2019-03-06T00:02:43.958Z,1002.18
2019-03-06T00:03:43.953Z,1002.18
2019-03-06T00:04:43.941Z,1002.17
2019-03-06T00:05:43.945Z,1002.19
2019-03-06T00:06:43.925Z,1002.17
2019-03-06T00:07:43.920Z,1002.14
2019-03-06T00:08:43.908Z,1002.06
2019-03-06T00:09:43.907Z,1002.13
2019-03-06T00:10:43.896Z,1002.14
2019-03-06T00:11:43.885Z,1002.13
2019-03-06T00:12:43.873Z,1002.13
2019-03-06T00:13:43.868Z,1002.10
2019-03-06T00:14:43.857Z,1002.15
2019-03-06T00:15:43.851Z,1002.15
2019-03-06T00:16:43.843Z,1002.10
2019-03-06T00:17:43.834Z,1002.12
2019-03-06T00:18:43.823Z,1002.13
2019-03-06T00:19:43.817Z,1002.12
2019-03-06T00:20:43.806Z,1002.11
2019-03-06T00:21:43.800Z,1002.11
2019-03-06T00:22:43.792Z,1002.12
2019-03-06T00:23:43.786Z,1002.06
2019-03-06T00:24:43.775Z,1002.07
2019-03-06T00:25:43.764Z,1002.07
2019-03-06T00:26:43.758Z,1002.09
2019-03-06T00:27:43.750Z,1002.06
2019-03-06T00:28:43.741Z,1002.07
2019-03-06T00:29:43.730Z,1002.06
2019-03-06T00:30:43.725Z,1002.06
2019-03-06T00:31:43.717Z,1002.04
2019-03-06T00:32:43.707Z,1002.07
2019-03-06T00:33:43.704Z,1002.08
2019-03-06T00:34:43.691Z,1002.10
2019-03-06T00:35:43.681Z,1002.09
2019-03-06T00:36:43.676Z,1002.07
2019-03-06T00:37:43.664Z,1002.06
2019-03-06T00:38:43.667Z,1002.00
2019-03-06T00:39:43.647Z,1001.95
2019-03-06T00:40:43.642Z,1001.96
2019-03-06T00:41:43.629Z,1001.93
2019-03-06T00:42:43.633Z,1001.96
2019-03-06T00:43:43.613Z,1001.94
2019-03-06T00:44:43.606Z,1001.97
2019-03-06T00:45:43.595Z,1001.94
2019-03-06T00:46:43.590Z,1001.97
2019-03-06T00:47:43.580Z,1001.95
2019-03-06T00:48:43.572Z,1001.99
2019-03-06T00:49:43.562Z,1001.98
2019-03-06T00:50:43.557Z,1001.97
2019-03-06T00:51:43.548Z,1001.94
2019-03-06T00:52:43.539Z,1001.95
2019-03-06T00:53:43.529Z,1002.00
2019-03-06T00:54:43.522Z,1001.96
2019-03-06T00:55:43.526Z,1001.98
2019-03-06T00:56:43.506Z,1001.95
2019-03-06T00:57:43.495Z,1001.98
2019-03-06T00:58:43.490Z,1001.99
2019-03-06T00:59:43.478Z,1001.94
2019-03-06T01:00:43.471Z,1001.92
2019-03-06T01:01:43.462Z,1001.98
2019-03-06T01:02:43.455Z,1001.96
2019-03-06T01:03:43.453Z,1001.95
2019-03-06T01:04:43.438Z,1001.97
2019-03-06T01:05:43.429Z,1001.96
2019-03-06T01:06:43.425Z,1001.98
2019-03-06T01:07:43.412Z,1001.95
2019-03-06T01:08:43.404Z,1001.96
2019-03-06T01:09:43.402Z,1001.99
2019-03-06T01:10:43.420Z,1001.94
2019-03-06T01:11:43.377Z,1001.89
2019-03-06T01:12:43.371Z,1001.91
2019-03-06T01:13:43.360Z,1001.97
2019-03-06T01:14:43.354Z,1001.97
2019-03-06T01:15:43.344Z,1001.94
2019-03-06T01:16:43.337Z,1001.93
2019-03-06T01:17:43.327Z,1001.91
2019-03-06T01:18:43.322Z,1001.86
2019-03-06T01:19:43.310Z,1001.89
2019-03-06T01:20:43.305Z,1001.83
2019-03-06T01:21:43.293Z,1001.77
2019-03-06T01:22:43.287Z,1001.74
2019-03-06T01:23:43.276Z,1001.73
2019-03-06T01:24:43.270Z,1001.71
2019-03-06T01:25:43.259Z,1001.66
2019-03-06T01:26:43.254Z,1001.68
2019-03-06T01:27:43.242Z,1001.65
2019-03-06T01:28:43.236Z,1001.62
2019-03-06T01:29:43.227Z,1001.65
2019-03-06T01:30:43.219Z,1001.64
2019-03-06T01:31:43.209Z,1001.60
2019-03-06T01:32:43.207Z,1001.59
2019-03-06T01:33:43.192Z,1001.54
2019-03-06T01:34:43.186Z,1001.55
2019-03-06T01:35:43.175Z,1001.59
2019-03-06T01:36:43.169Z,1001.58
2019-03-06T01:37:43.159Z,1001.46
2019-03-06T01:38:43.156Z,1001.53
2019-03-06T01:39:43.143Z,1001.52
2019-03-06T01:40:43.135Z,1001.51
2019-03-06T01:41:43.124Z,1001.49
2019-03-06T01:42:43.119Z,1001.47
2019-03-06T01:43:43.109Z,1001.46
2019-03-06T01:44:43.102Z,1001.48
2019-03-06T01:45:43.091Z,1001.51
2019-03-06T01:46:43.084Z,1001.49
2019-03-06T01:47:43.074Z,1001.50
2019-03-06T01:48:43.067Z,1001.49
2019-03-06T01:49:43.056Z,1001.42
2019-03-06T01:50:43.055Z,1001.41
2019-03-06T01:51:43.042Z,1001.43
2019-03-06T01:52:43.034Z,1001.49
2019-03-06T01:53:43.025Z,1001.49
2019-03-06T01:54:43.017Z,1001.53
2019-03-06T01:55:43.018Z,1001.50
2019-03-06T01:56:43.000Z,1001.48
2019-03-06T01:57:42.989Z,1001.41
2019-03-06T01:58:42.983Z,1001.40
2019-03-06T01:59:42.973Z,1001.40
2019-03-06T02:00:42.970Z,1001.39
2019-03-06T02:01:42.956Z,1001.35
2019-03-06T02:02:42.950Z,1001.38
2019-03-06T02:03:42.940Z,1001.40
2019-03-06T02:04:42.933Z,1001.39
2019-03-06T02:05:42.923Z,1001.34
2019-03-06T02:06:42.916Z,1001.36
2019-03-06T02:07:42.907Z,1001.35
2019-03-06T02:08:42.902Z,1001.30
2019-03-06T02:09:42.890Z,1001.29
2019-03-06T02:10:42.883Z,1001.27
2019-03-06T02:11:42.873Z,1001.21
2019-03-06T02:12:42.867Z,1001.22
2019-03-06T02:13:42.856Z,1001.20
2019-03-06T02:14:42.851Z,1001.19
2019-03-06T02:15:42.850Z,1001.16
2019-03-06T02:16:42.835Z,1001.17
2019-03-06T02:17:42.823Z,1001.12
2019-03-06T02:18:42.817Z,1001.15
2019-03-06T02:19:42.807Z,1001.11
2019-03-06T02:20:42.801Z,1001.13
2019-03-06T02:21:42.790Z,1001.14
2019-03-06T02:22:42.791Z,1001.12
2019-03-06T02:23:42.775Z,1001.09
2019-03-06T02:24:42.768Z,1001.08
2019-03-06T02:25:42.757Z,1001.04
2019-03-06T02:26:42.751Z,1000.98
2019-03-06T02:27:42.742Z,1001.03
2019-03-06T02:28:42.735Z,1000.95
2019-03-06T02:29:42.727Z,1000.97
2019-03-06T02:30:42.746Z,1000.93
2019-03-06T02:31:42.708Z,1000.94
2019-03-06T02:32:42.701Z,1000.92
2019-03-06T02:33:42.693Z,1000.90
2019-03-06T02:34:42.687Z,1000.87
2019-03-06T02:35:42.675Z,1000.87
2019-03-06T02:36:42.669Z,1000.87
2019-03-06T02:37:42.663Z,1000.85
2019-03-06T02:38:42.654Z,1000.84
2019-03-06T02:39:42.651Z,1000.80
2019-03-06T02:40:42.637Z,1000.80
2019-03-06T02:41:42.626Z,1000.82
2019-03-06T02:42:42.624Z,1000.78
2019-03-06T02:43:42.622Z,1000.71
2019-03-06T02:44:42.611Z,1000.72
2019-03-06T02:45:42.593Z,1000.64
2019-03-06T02:46:42.597Z,1000.62
2019-03-06T02:47:42.580Z,1000.62
2019-03-06T02:48:42.575Z,1000.63
2019-03-06T02:49:42.578Z,1000.59
2019-03-06T02:50:42.553Z,1000.61
2019-03-06T02:51:42.551Z,1000.58
2019-03-06T02:52:42.537Z,1000.49
2019-03-06T02:53:42.526Z,1000.53
2019-03-06T02:54:42.523Z,1000.56
2019-03-06T02:55:42.520Z,1000.54
2019-03-06T02:56:42.505Z,1000.57
2019-03-06T02:57:42.492Z,1000.55
2019-03-06T02:58:44.242Z,1000.57
2019-03-06T02:59:42.476Z,1000.61
2019-03-06T03:00:42.469Z,1000.63
2019-03-06T03:01:42.461Z,1000.59
2019-03-06T03:02:42.453Z,1000.59
2019-03-06T03:03:42.448Z,1000.55
2019-03-06T03:04:42.434Z,1000.59
2019-03-06T03:05:42.424Z,1000.56
2019-03-06T03:06:42.417Z,1000.54
2019-03-06T03:07:42.408Z,1000.53
2019-03-06T03:08:42.406Z,1000.54
2019-03-06T03:09:42.392Z,1000.50
2019-03-06T03:10:42.383Z,1000.44
2019-03-06T03:11:42.372Z,1000.41
2019-03-06T03:12:42.366Z,1000.40
2019-03-06T03:13:42.355Z,1000.47
2019-03-06T03:14:42.349Z,1000.39
2019-03-06T03:15:42.341Z,1000.40
2019-03-06T03:16:42.331Z,1000.34
2019-03-06T03:17:42.320Z,1000.39
2019-03-06T03:18:42.313Z,1000.33
2019-03-06T03:19:42.301Z,1000.28
2019-03-06T03:20:42.302Z,1000.30
2019-03-06T03:21:42.283Z,1000.26
2019-03-06T03:22:42.278Z,1000.22
2019-03-06T03:23:42.267Z,1000.20
2019-03-06T03:24:42.258Z,1000.23
2019-03-06T03:25:42.253Z,1000.20
2019-03-06T03:26:42.243Z,1000.21
2019-03-06T03:27:42.230Z,1000.14
2019-03-06T03:28:42.223Z,1000.11
2019-03-06T03:29:42.213Z,1000.17
2019-03-06T03:30:42.211Z,1000.15
2019-03-06T03:31:42.204Z,1000.09
2019-03-06T03:32:42.189Z,1000.04
2019-03-06T03:33:42.183Z,1000.02
2019-03-06T03:34:42.176Z,999.93
2019-03-06T03:35:42.160Z,999.92
2019-03-06T03:36:42.157Z,999.92
2019-03-06T03:37:42.146Z,999.90
2019-03-06T03:38:42.138Z,999.88
2019-03-06T03:39:42.125Z,999.83
2019-03-06T03:40:42.119Z,999.78
2019-03-06T03:41:42.107Z,999.75
2019-03-06T03:42:42.103Z,999.76
2019-03-06T03:43:42.092Z,999.75
2019-03-06T03:44:42.089Z,999.73
2019-03-06T03:45:42.071Z,999.78
2019-03-06T03:46:42.064Z,999.78
2019-03-06T03:47:42.061Z,999.76
2019-03-06T03:48:42.048Z,999.80
2019-03-06T03:49:42.038Z,999.81
2019-03-06T03:50:42.030Z,999.81
2019-03-06T03:51:42.269Z,999.85
2019-03-06T03:52:42.017Z,999.85
2019-03-06T03:53:42.002Z,999.86
2019-03-06T03:54:41.997Z,999.77
2019-03-06T03:55:41.982Z,999.76
2019-03-06T03:56:41.975Z,999.75
2019-03-06T03:57:41.965Z,999.73
2019-03-06T03:58:41.961Z,999.76
2019-03-06T03:59:41.949Z,999.68
2019-03-06T04:00:41.940Z,999.64
2019-03-06T04:01:41.930Z,999.68
2019-03-06T04:02:41.923Z,999.66
2019-03-06T04:03:41.922Z,999.60
2019-03-06T04:04:41.917Z,999.55
2019-03-06T04:05:41.900Z,999.56
2019-03-06T04:06:41.897Z,999.59
2019-03-06T04:07:41.881Z,999.61
2019-03-06T04:08:41.869Z,999.58
2019-03-06T04:09:41.868Z,999.59
2019-03-06T04:10:41.852Z,999.57
2019-03-06T04:11:41.845Z,999.61
2019-03-06T04:12:41.854Z,999.55
2019-03-06T04:13:41.835Z,999.59
2019-03-06T04:14:41.817Z,999.57
2019-03-06T04:15:41.816Z,999.58
2019-03-06T04:16:41.800Z,999.57
2019-03-06T04:17:41.788Z,999.57
2019-03-06T04:18:41.796Z,999.57
2019-03-06T04:19:41.772Z,999.54
2019-03-06T04:20:41.765Z,999.55
2019-03-06T04:21:41.779Z,999.57
2019-03-06T04:22:41.748Z,999.50
2019-03-06T04:23:41.738Z,999.51
2019-03-06T04:24:41.743Z,999.53
2019-03-06T04:25:41.722Z,999.56
2019-03-06T04:26:41.713Z,999.54
2019-03-06T04:27:41.718Z,999.59
2019-03-06T04:28:41.697Z,999.56
2019-03-06T04:29:41.699Z,999.62
2019-03-06T04:30:41.685Z,999.65
2019-03-06T04:31:41.679Z,999.61
2019-03-06T04:32:41.662Z,999.58
2019-03-06T04:33:41.650Z,999.55
2019-03-06T04:34:41.649Z,999.65
2019-03-06T04:35:41.640Z,999.57
2019-03-06T04:36:41.642Z,999.60
2019-03-06T04:37:41.619Z,999.62
2019-03-06T04:38:43.714Z,999.62
2019-03-06T04:39:41.598Z,999.66
2019-03-06T04:40:41.589Z,999.59
2019-03-06T04:41:41.584Z,999.55
2019-03-06T04:42:41.578Z,999.55
2019-03-06T04:43:41.567Z,999.58
2019-03-06T04:44:41.705Z,999.58
2019-03-06T04:45:41.549Z,999.63
2019-03-06T04:46:41.539Z,999.57
2019-03-06T04:47:41.533Z,999.54
2019-03-06T04:48:41.522Z,999.59
2019-03-06T04:49:41.516Z,999.56
2019-03-06T04:50:41.507Z,999.51
2019-03-06T04:51:41.504Z,999.50
2019-03-06T04:52:41.494Z,999.46
2019-03-06T04:53:41.482Z,999.46
2019-03-06T04:54:41.471Z,999.45
2019-03-06T04:55:41.465Z,999.38
2019-03-06T04:56:41.453Z,999.38
2019-03-06T04:57:41.450Z,999.36
2019-03-06T04:58:41.438Z,999.30
2019-03-06T04:59:41.435Z,999.33
2019-03-06T05:00:41.421Z,999.32
2019-03-06T05:01:41.414Z,999.27
2019-03-06T05:02:41.404Z,999.20
2019-03-06T05:03:41.398Z,999.21
2019-03-06T05:04:41.386Z,999.20
2019-03-06T05:05:41.383Z,999.22
2019-03-06T05:06:41.372Z,999.22
2019-03-06T05:07:41.367Z,999.21
2019-03-06T05:08:41.353Z,999.19
2019-03-06T05:09:41.362Z,999.16
2019-03-06T05:10:41.337Z,999.13
2019-03-06T05:11:41.331Z,999.12
2019-03-06T05:12:41.320Z,999.12
2019-03-06T05:13:41.319Z,999.05
2019-03-06T05:14:41.304Z,999.01
2019-03-06T05:15:41.313Z,998.98
2019-03-06T05:16:41.287Z,998.94
2019-03-06T05:17:41.281Z,998.92
2019-03-06T05:18:41.271Z,998.89
2019-03-06T05:19:41.266Z,998.90
2019-03-06T05:20:41.272Z,998.90
2019-03-06T05:21:41.261Z,998.88
2019-03-06T05:22:41.238Z,998.89
2019-03-06T05:23:41.232Z,998.97
2019-03-06T05:24:41.221Z,998.97
2019-03-06T05:25:41.223Z,999.00
2019-03-06T05:26:41.205Z,998.97
2019-03-06T05:27:41.212Z,998.98
2019-03-06T05:28:41.189Z,998.93
2019-03-06T05:29:41.183Z,998.93
2019-03-06T05:30:41.173Z,998.99
2019-03-06T05:31:41.167Z,998.95
2019-03-06T05:32:41.159Z,998.90
2019-03-06T05:33:41.165Z,998.85
2019-03-06T05:34:41.151Z,998.83
2019-03-06T05:35:41.149Z,998.80
2019-03-06T05:36:41.125Z,998.77
2019-03-06T05:37:41.119Z,998.80
2019-03-06T05:38:41.109Z,998.76
2019-03-06T05:39:41.103Z,998.70
2019-03-06T05:40:41.110Z,998.72
2019-03-06T05:41:41.152Z,998.72
2019-03-06T05:42:41.077Z,998.75
2019-03-06T05:43:41.071Z,998.75
2019-03-06T05:44:41.063Z,998.73
2019-03-06T05:45:41.055Z,998.74
2019-03-06T05:46:41.045Z,998.71
2019-03-06T05:47:41.045Z,998.66
2019-03-06T05:48:41.033Z,998.63
2019-03-06T05:49:41.023Z,998.65
2019-03-06T05:50:41.013Z,998.66
2019-03-06T05:51:41.008Z,998.66
2019-03-06T05:52:40.996Z,998.63
2019-03-06T05:53:40.992Z,998.63
2019-03-06T05:54:40.999Z,998.57
2019-03-06T05:55:40.998Z,998.55
2019-03-06T05:56:40.966Z,998.53
2019-03-06T05:57:40.960Z,998.54
2019-03-06T05:58:40.950Z,998.59
2019-03-06T05:59:40.945Z,998.56
2019-03-06T06:00:40.936Z,998.56
2019-03-06T06:01:40.929Z,998.51
2019-03-06T06:02:40.918Z,998.49
2019-03-06T06:03:40.913Z,998.43
2019-03-06T06:04:40.903Z,998.38
2019-03-06T06:05:40.920Z,998.33
2019-03-06T06:06:40.888Z,998.30
2019-03-06T06:07:41.577Z,998.24
2019-03-06T06:08:40.871Z,998.16
2019-03-06T06:09:40.866Z,998.14
2019-03-06T06:10:40.857Z,998.14
2019-03-06T06:11:40.861Z,998.16
2019-03-06T06:12:40.854Z,998.12
2019-03-06T06:13:40.835Z,998.17
2019-03-06T06:14:40.827Z,998.12
2019-03-06T06:15:40.832Z,998.15
2019-03-06T06:16:40.815Z,998.11
2019-03-06T06:17:40.831Z,998.11
2019-03-06T06:18:40.804Z,998.02
2019-03-06T06:19:40.789Z,998.04
2019-03-06T06:20:40.780Z,997.97
2019-03-06T06:21:40.774Z,997.95
2019-03-06T06:22:40.763Z,997.96
2019-03-06T06:23:40.775Z,997.93
2019-03-06T06:24:40.752Z,997.91
2019-03-06T06:25:40.746Z,997.91
2019-03-06T06:26:40.750Z,997.95
2019-03-06T06:27:40.727Z,997.99
2019-03-06T06:28:40.717Z,997.96
2019-03-06T06:29:40.719Z,997.91
2019-03-06T06:30:40.703Z,997.94
2019-03-06T06:31:40.699Z,997.98
2019-03-06T06:32:40.704Z,998.13
2019-03-06T06:33:40.681Z,998.09
2019-03-06T06:34:40.671Z,998.03
2019-03-06T06:35:40.666Z,998.02
2019-03-06T06:36:40.655Z,998.03
2019-03-06T06:37:40.651Z,998.00
2019-03-06T06:38:40.642Z,998.01
2019-03-06T06:39:40.648Z,997.96
2019-03-06T06:40:40.640Z,997.95
2019-03-06T06:41:40.619Z,997.98
2019-03-06T06:42:40.610Z,997.99
2019-03-06T06:43:40.615Z,997.97
2019-03-06T06:44:40.593Z,997.91
2019-03-06T06:45:40.588Z,997.88
2019-03-06T06:46:40.596Z,997.83
2019-03-06T06:47:40.591Z,997.72
2019-03-06T06:48:40.562Z,997.79
2019-03-06T06:49:40.559Z,997.76
2019-03-06T06:50:40.557Z,997.78
2019-03-06T06:51:40.543Z,997.73
2019-03-06T06:52:40.538Z,997.80
2019-03-06T06:53:40.565Z,997.72
2019-03-06T06:54:40.523Z,997.71
2019-03-06T06:55:40.511Z,997.75
2019-03-06T06:56:40.500Z,997.65
2019-03-06T06:57:40.495Z,997.67
2019-03-06T06:58:40.494Z,997.67
2019-03-06T06:59:40.486Z,997.65
2019-03-06T07:00:40.487Z,997.66
2019-03-06T07:01:40.473Z,997.60
2019-03-06T07:02:40.604Z,997.54
2019-03-06T07:03:40.449Z,997.52
2019-03-06T07:04:40.448Z,997.53
2019-03-06T07:05:40.438Z,997.51
2019-03-06T07:06:40.427Z,997.50
2019-03-06T07:07:40.435Z,997.53
2019-03-06T07:08:40.413Z,997.48
2019-03-06T07:09:40.409Z,997.45
2019-03-06T07:10:40.394Z,997.47
2019-03-06T07:11:40.394Z,997.50
2019-03-06T07:12:40.394Z,997.48
2019-03-06T07:13:40.372Z,997.41
2019-03-06T07:14:40.363Z,997.41
2019-03-06T07:15:40.358Z,997.43
2019-03-06T07:16:40.347Z,997.40
2019-03-06T07:17:40.344Z,997.38
2019-03-06T07:18:40.341Z,997.35
2019-03-06T07:19:40.331Z,997.32
2019-03-06T07:20:40.317Z,997.32
2019-03-06T07:21:40.312Z,997.29
2019-03-06T07:22:40.303Z,997.24
2019-03-06T07:23:41.401Z,997.23
2019-03-06T07:24:40.287Z,997.19
2019-03-06T07:25:40.296Z,997.20
2019-03-06T07:26:40.279Z,997.18
2019-03-06T07:27:40.282Z,997.18
2019-03-06T07:28:40.257Z,997.19
2019-03-06T07:29:40.252Z,997.10
2019-03-06T07:30:40.243Z,997.21
2019-03-06T07:31:40.238Z,997.17
2019-03-06T07:32:40.227Z,997.14
2019-03-06T07:33:40.474Z,997.18
2019-03-06T07:34:40.226Z,997.13
2019-03-06T07:35:40.278Z,997.13
2019-03-06T07:36:40.220Z,997.08
2019-03-06T07:37:40.193Z,997.08
2019-03-06T07:38:40.189Z,997.05
2019-03-06T07:39:40.180Z,997.01
2019-03-06T07:40:40.169Z,997.03
2019-03-06T07:41:40.164Z,997.08
2019-03-06T07:42:40.155Z,997.03
2019-03-06T07:43:40.169Z,997.00
2019-03-06T07:44:40.142Z,997.01
2019-03-06T07:45:40.135Z,996.98
2019-03-06T07:46:40.128Z,997.01
2019-03-06T07:47:40.122Z,997.00
2019-03-06T07:48:40.118Z,997.08
2019-03-06T07:49:45.212Z,997.02
2019-03-06T07:50:40.101Z,997.05
2019-03-06T07:51:40.093Z,997.09
2019-03-06T07:52:40.086Z,997.04
2019-03-06T07:53:40.079Z,997.04
2019-03-06T07:54:40.082Z,997.04
2019-03-06T07:55:40.065Z,997.05
2019-03-06T07:56:40.084Z,997.05
2019-03-06T07:57:40.051Z,997.06
2019-03-06T07:58:40.043Z,997.03
2019-03-06T07:59:40.037Z,997.08
2019-03-06T08:00:40.028Z,997.11
2019-03-06T08:01:40.034Z,997.09
2019-03-06T08:02:40.031Z,997.04
2019-03-06T08:03:40.011Z,997.07
2019-03-06T08:04:40.000Z,997.08
2019-03-06T08:05:39.995Z,997.09
2019-03-06T08:06:39.987Z,997.07
2019-03-06T08:07:39.982Z,997.09
2019-03-06T08:08:39.981Z,997.10
2019-03-06T08:09:39.972Z,997.04
2019-03-06T08:10:39.959Z,997.06
2019-03-06T08:11:39.955Z,997.04
2019-03-06T08:12:39.948Z,997.03
2019-03-06T08:13:39.945Z,996.95
2019-03-06T08:14:39.947Z,997.00
2019-03-06T08:15:39.930Z,996.92
2019-03-06T08:16:39.924Z,996.91
2019-03-06T08:17:39.933Z,996.90
2019-03-06T08:18:39.921Z,996.84
2019-03-06T08:19:39.901Z,996.88
2019-03-06T08:20:39.997Z,996.82
2019-03-06T08:21:39.895Z,996.85
2019-03-06T08:22:39.892Z,996.81
2019-03-06T08:23:39.881Z,996.82
2019-03-06T08:24:39.894Z,996.79
2019-03-06T08:25:39.867Z,996.75
2019-03-06T08:26:39.853Z,996.71
2019-03-06T08:27:39.849Z,996.70
2019-03-06T08:28:39.840Z,996.77
2019-03-06T08:29:39.884Z,996.79
2019-03-06T08:30:39.826Z,996.84
2019-03-06T08:31:39.823Z,996.76
2019-03-06T08:32:39.819Z,996.70
2019-03-06T08:33:39.814Z,996.68
2019-03-06T08:34:39.802Z,996.65
2019-03-06T08:35:39.813Z,996.62
2019-03-06T08:36:39.790Z,996.61
2019-03-06T08:37:39.784Z,996.59
2019-03-06T08:38:39.775Z,996.53
2019-03-06T08:39:39.778Z,996.45
2019-03-06T08:40:39.770Z,996.52
2019-03-06T08:41:39.774Z,996.44
2019-03-06T08:42:39.751Z,996.38
2019-03-06T08:43:39.747Z,996.51
2019-03-06T08:44:39.736Z,996.50
2019-03-06T08:45:39.732Z,996.46
2019-03-06T08:46:39.725Z,996.47
2019-03-06T08:47:39.734Z,996.45
2019-03-06T08:48:39.711Z,996.38
2019-03-06T08:49:39.723Z,996.40
2019-03-06T08:50:39.699Z,996.40
2019-03-06T08:51:39.697Z,996.41
2019-03-06T08:52:39.687Z,996.38
2019-03-06T08:53:39.688Z,996.40
2019-03-06T08:54:39.680Z,996.37
2019-03-06T08:55:39.671Z,996.41
2019-03-06T08:56:39.666Z,996.36
2019-03-06T08:57:39.667Z,996.37
2019-03-06T08:58:39.655Z,996.31
2019-03-06T08:59:39.644Z,996.28
2019-03-06T09:00:39.640Z,996.30
2019-03-06T09:01:39.632Z,996.30
2019-03-06T09:02:39.629Z,996.25
2019-03-06T09:03:39.620Z,996.20
2019-03-06T09:04:39.616Z,996.12
2019-03-06T09:05:39.609Z,996.16
2019-03-06T09:06:39.620Z,996.06
2019-03-06T09:07:39.607Z,996.05
2019-03-06T09:08:39.593Z,996.07
2019-03-06T09:09:39.587Z,996.08
2019-03-06T09:10:39.582Z,996.13
2019-03-06T09:11:39.624Z,996.05
2019-03-06T09:12:39.582Z,996.07
2019-03-06T09:13:39.561Z,996.07
2019-03-06T09:14:39.582Z,996.07
2019-03-06T09:15:39.551Z,996.08
2019-03-06T09:16:39.545Z,996.00
2019-03-06T09:17:39.538Z,996.06
2019-03-06T09:18:39.534Z,996.09
2019-03-06T09:19:39.531Z,996.02
2019-03-06T09:20:41.089Z,996.08
2019-03-06T09:21:39.523Z,996.04
2019-03-06T09:22:39.512Z,996.05
2019-03-06T09:23:39.504Z,996.02
2019-03-06T09:24:39.500Z,996.01
2019-03-06T09:25:39.494Z,995.96
2019-03-06T09:26:39.489Z,996.03
2019-03-06T09:27:39.481Z,995.98
2019-03-06T09:28:39.477Z,995.96
2019-03-06T09:29:39.489Z,995.92
2019-03-06T09:30:39.465Z,995.82
2019-03-06T09:31:39.458Z,995.84
2019-03-06T09:32:39.460Z,995.85
2019-03-06T09:33:39.446Z,995.79
2019-03-06T09:34:39.459Z,995.80
2019-03-06T09:35:39.439Z,995.76
2019-03-06T09:36:39.435Z,995.72
2019-03-06T09:37:39.424Z,995.78
2019-03-06T09:38:39.421Z,995.65
2019-03-06T09:39:39.428Z,995.68
2019-03-06T09:40:39.409Z,995.66
2019-03-06T09:41:39.402Z,995.62
2019-03-06T09:42:39.399Z,995.67
2019-03-06T09:43:39.403Z,995.68
2019-03-06T09:44:39.390Z,995.63
2019-03-06T09:45:39.382Z,995.57
2019-03-06T09:46:39.380Z,995.48
2019-03-06T09:47:39.383Z,995.51
2019-03-06T09:48:39.376Z,995.47
2019-03-06T09:51:39.652Z,995.40
2019-03-06T09:52:39.347Z,995.28
2019-03-06T09:53:39.340Z,995.31
2019-03-06T09:54:39.337Z,995.26
2019-03-06T09:55:39.331Z,995.23
2019-03-06T09:56:39.327Z,995.23
2019-03-06T09:57:39.320Z,995.18
2019-03-06T09:58:39.318Z,995.17
2019-03-06T09:59:39.329Z,995.11
2019-03-06T10:00:39.308Z,995.10
2019-03-06T10:01:39.302Z,995.07
2019-03-06T10:02:39.298Z,995.10
2019-03-06T10:03:39.294Z,995.08
2019-03-06T10:04:39.289Z,994.98
2019-03-06T10:05:39.285Z,995.03
2019-03-06T10:06:39.281Z,995.03
2019-03-06T10:07:39.274Z,994.93
2019-03-06T10:08:39.287Z,994.95
2019-03-06T10:09:39.280Z,994.93
2019-03-06T10:10:45.961Z,994.85
2019-03-06T10:11:39.257Z,994.89
2019-03-06T10:12:47.272Z,994.89
2019-03-06T10:13:42.196Z,994.83
2019-03-06T10:14:39.246Z,994.82
2019-03-06T10:15:39.239Z,994.84
2019-03-06T10:16:39.267Z,994.83
2019-03-06T10:17:39.231Z,994.75
2019-03-06T10:18:39.229Z,994.72
2019-03-06T10:19:39.224Z,994.71
2019-03-06T10:20:39.222Z,994.62
2019-03-06T10:21:39.228Z,994.66
2019-03-06T10:22:39.220Z,994.59
2019-03-06T10:23:39.208Z,994.58
2019-03-06T10:24:39.204Z,994.44
2019-03-06T10:25:39.199Z,994.55
2019-03-06T10:26:39.210Z,994.50
2019-03-06T10:27:39.193Z,994.53
2019-03-06T10:28:39.192Z,994.48
2019-03-06T10:29:39.190Z,994.51
2019-03-06T10:30:39.185Z,994.40
2019-03-06T10:31:39.194Z,994.39
2019-03-06T10:32:39.178Z,994.35
2019-03-06T10:33:39.175Z,994.39
2019-03-06T10:34:39.186Z,994.40
2019-03-06T10:35:39.167Z,994.39
2019-03-06T10:36:39.162Z,994.36
2019-03-06T10:37:39.167Z,994.33
2019-03-06T10:38:39.156Z,994.36
2019-03-06T10:39:39.152Z,994.26
2019-03-06T10:40:39.148Z,994.38
2019-03-06T10:41:39.151Z,994.24
2019-03-06T10:42:39.167Z,994.20
2019-03-06T10:43:39.136Z,994.07
2019-03-06T10:44:39.285Z,994.13
2019-03-06T10:45:41.784Z,994.08
2019-03-06T10:46:39.129Z,994.04
2019-03-06T10:47:39.123Z,994.09
2019-03-06T10:48:39.122Z,994.17
2019-03-06T10:49:39.142Z,994.18
2019-03-06T10:50:39.127Z,994.17
2019-03-06T10:51:40.330Z,994.18
2019-03-06T10:52:39.111Z,994.27
2019-03-06T10:56:39.867Z,994.15
2019-03-06T11:09:06.975Z,994.02
2019-03-06T11:10:06.975Z,994.00
2019-03-06T11:11:06.967Z,994.05
2019-03-06T11:12:06.970Z,994.03
2019-03-06T11:13:08.480Z,994.03
2019-03-06T11:14:06.966Z,993.99
2019-03-06T11:15:06.956Z,993.99
2019-03-06T11:20:00.326Z,993.91
2019-03-06T11:22:12.604Z,993.83
2019-03-06T11:24:20.062Z,993.68
2019-03-06T11:25:20.059Z,993.67
2019-03-06T11:26:20.054Z,993.65
2019-03-06T11:27:20.052Z,993.62
2019-03-06T11:28:20.050Z,993.72
2019-03-06T11:29:20.048Z,993.70
2019-03-06T11:30:20.043Z,993.63
2019-03-06T11:35:19.820Z,993.60
2019-03-06T11:36:19.821Z,993.64
2019-03-06T11:37:19.815Z,993.59
2019-03-06T11:38:19.846Z,993.53
2019-03-06T11:39:19.809Z,993.52
2019-03-06T11:40:19.810Z,993.58
2019-03-06T11:41:19.804Z,993.51
2019-03-06T11:42:19.804Z,993.54
2019-03-06T11:43:19.799Z,993.55
2019-03-06T11:44:19.800Z,993.41
2019-03-06T11:45:19.794Z,993.58
2019-03-06T12:11:04.904Z,993.00
2019-03-06T12:12:04.904Z,992.97
2019-03-06T12:13:04.899Z,992.85
2019-03-06T12:14:04.900Z,992.87
2019-03-06T12:15:04.895Z,992.89
2019-03-06T12:16:04.906Z,992.86
2019-03-06T12:17:04.895Z,992.75
2019-03-06T12:18:04.892Z,992.74
2019-03-06T12:19:04.887Z,992.77
2019-03-06T12:20:08.080Z,992.71
2019-03-06T12:21:04.887Z,992.71
2019-03-06T12:22:04.883Z,992.78
2019-03-06T12:23:04.877Z,992.79
2019-03-06T12:24:04.877Z,992.72
2019-03-06T12:25:04.874Z,992.78
2019-03-06T12:26:04.873Z,992.76
2019-03-06T12:27:04.868Z,992.74
2019-03-06T12:28:04.868Z,992.70
2019-03-06T12:29:04.863Z,992.57
2019-03-06T12:30:04.864Z,992.48
2019-03-06T12:31:04.858Z,992.43
2019-03-06T12:32:04.859Z,992.42
2019-03-06T12:33:04.858Z,992.41
2019-03-06T12:34:04.856Z,992.35
2019-03-06T12:35:04.851Z,992.32
2019-03-06T12:36:05.737Z,992.27
2019-03-06T12:37:04.846Z,992.24
2019-03-06T12:38:04.847Z,992.31
2019-03-06T12:39:04.843Z,992.27
2019-03-06T12:41:04.844Z,992.23
2019-03-06T12:42:13.780Z,992.19
2019-03-06T12:43:04.837Z,992.15
2019-03-06T15:35:03.691Z,990.85
2019-03-06T15:36:03.593Z,990.81
2019-03-06T15:37:03.583Z,990.86
2019-03-06T15:38:03.580Z,990.93
2019-03-06T15:39:03.576Z,990.83
2019-03-06T15:40:03.573Z,990.86
2019-03-06T15:41:03.566Z,990.86
2019-03-06T15:42:03.564Z,990.86
2019-03-06T15:43:03.558Z,990.81
2019-03-06T15:44:03.557Z,990.80
2019-03-06T15:45:03.549Z,990.80
2019-03-06T15:46:03.549Z,990.60
2019-03-06T15:47:03.542Z,990.73
2019-03-06T15:48:03.540Z,990.69
2019-03-06T15:49:03.531Z,990.65
2019-03-06T15:50:03.533Z,990.55
2019-03-06T17:09:10.082Z,989.63
2019-03-06T17:10:10.079Z,989.61
2019-03-06T17:13:35.760Z,989.65
2019-03-06T17:14:35.756Z,989.71
2019-03-06T17:15:35.752Z,989.69
2019-03-06T17:16:35.748Z,989.67
2019-03-06T17:17:35.740Z,989.68
2019-03-06T17:18:35.739Z,989.71
2019-03-06T17:20:35.727Z,989.73
2019-03-06T17:21:35.725Z,989.59
2019-03-06T17:22:35.720Z,989.73
2019-03-06T17:23:35.716Z,989.71
2019-03-06T17:24:35.711Z,989.73
2019-03-06T17:25:35.710Z,989.70
2019-03-06T17:26:35.704Z,989.63